createdAt,value
2023-01-08T00:00:31.554Z,4.97
2023-01-08T00:03:34.515Z,5.07
2023-01-08T00:06:37.141Z,5.01
2023-01-08T00:09:39.447Z,5.01
2023-01-08T00:12:41.786Z,4.97
2023-01-08T00:15:44.059Z,5.00
2023-01-08T00:18:47.443Z,4.96
2023-01-08T00:21:49.750Z,4.79
2023-01-08T00:24:52.139Z,4.93
2023-01-08T00:27:54.466Z,4.92
2023-01-08T00:30:57.282Z,4.87
2023-01-08T00:33:59.838Z,4.73
2023-01-08T00:37:02.216Z,4.92
2023-01-08T00:40:04.996Z,4.87
2023-01-08T00:43:08.240Z,4.82
2023-01-08T00:46:10.643Z,4.87
2023-01-08T00:49:13.042Z,4.77
2023-01-08T00:52:15.304Z,4.68
2023-01-08T00:55:18.013Z,4.86
2023-01-08T00:58:20.427Z,4.80
2023-01-08T01:01:22.759Z,4.89
2023-01-08T01:04:26.815Z,4.91
2023-01-08T01:07:29.149Z,5.04
2023-01-08T01:10:31.444Z,4.84
2023-01-08T01:13:33.755Z,4.79
2023-01-08T01:16:36.711Z,4.91
2023-01-08T01:19:39.641Z,4.87
2023-01-08T01:22:42.725Z,4.91
2023-01-08T01:25:45.925Z,4.94
2023-01-08T01:28:50.091Z,4.93
2023-01-08T01:31:52.340Z,4.95
2023-01-08T01:34:54.633Z,4.77
2023-01-08T01:37:56.878Z,4.91
2023-01-08T01:40:59.679Z,4.78
2023-01-08T01:44:41.973Z,4.71
2023-01-08T01:47:47.045Z,4.88
2023-01-08T01:50:51.266Z,4.72
2023-01-08T01:53:53.391Z,4.93
2023-01-08T01:56:56.259Z,4.73
2023-01-08T01:59:59.217Z,4.77
2023-01-08T02:03:01.888Z,4.98
2023-01-08T02:06:10.445Z,4.92
2023-01-08T02:09:26.437Z,4.88
2023-01-08T02:12:35.020Z,4.85
2023-01-08T02:16:01.118Z,4.86
2023-01-08T02:19:43.871Z,4.95
2023-01-08T02:22:54.987Z,4.93
2023-01-08T02:26:00.174Z,4.82
2023-01-08T02:29:08.784Z,4.79
2023-01-08T02:32:11.165Z,4.86
2023-01-08T02:35:13.637Z,4.77
2023-01-08T02:38:18.548Z,4.98
2023-01-08T02:41:26.303Z,4.83
2023-01-08T02:44:56.123Z,4.77
2023-01-08T02:48:38.335Z,5.05
2023-01-08T02:51:47.461Z,4.88
2023-01-08T02:54:50.131Z,4.91
2023-01-08T02:57:52.880Z,4.85
2023-01-08T03:00:55.429Z,4.67
2023-01-08T03:04:01.141Z,4.68
2023-01-08T03:07:03.676Z,4.78
2023-01-08T03:10:06.763Z,4.64
2023-01-08T03:13:16.763Z,4.96
2023-01-08T03:16:23.827Z,4.97
2023-01-08T03:19:41.855Z,4.90
2023-01-08T03:22:46.545Z,4.88
2023-01-08T03:25:48.989Z,4.86
2023-01-08T03:28:54.537Z,4.85
2023-01-08T03:32:01.952Z,4.91
2023-01-08T03:35:06.504Z,4.83
2023-01-08T03:38:16.664Z,4.82
2023-01-08T03:41:20.569Z,4.76
2023-01-08T03:44:22.929Z,4.77
2023-01-08T03:47:26.103Z,4.74
2023-01-08T03:50:29.427Z,4.76
2023-01-08T03:53:31.779Z,4.56
2023-01-08T03:56:34.139Z,4.71
2023-01-08T03:59:36.469Z,4.86
2023-01-08T04:02:38.851Z,4.63
2023-01-08T04:05:41.247Z,4.55
2023-01-08T04:08:43.710Z,4.52
2023-01-08T04:11:45.998Z,4.66
2023-01-08T04:14:48.365Z,4.57
2023-01-08T04:17:50.749Z,4.55
2023-01-08T04:20:53.045Z,4.54
2023-01-08T04:23:55.748Z,4.41
2023-01-08T04:26:58.141Z,4.57
2023-01-08T04:30:00.394Z,4.40
2023-01-08T04:33:02.766Z,4.47
2023-01-08T04:36:05.642Z,4.48
2023-01-08T04:39:08.321Z,4.18
2023-01-08T04:42:10.664Z,4.09
2023-01-08T04:45:12.924Z,4.11
2023-01-08T04:48:15.233Z,4.03
2023-01-08T04:51:17.618Z,3.73
2023-01-08T04:54:19.907Z,3.69
2023-01-08T04:57:22.260Z,3.71
2023-01-08T05:00:24.513Z,3.83
2023-01-08T05:03:27.040Z,3.51
2023-01-08T05:06:30.801Z,3.63
2023-01-08T05:09:33.204Z,3.55
2023-01-08T05:12:35.516Z,3.45
2023-01-08T05:15:38.986Z,3.42
2023-01-08T05:18:41.315Z,3.47
2023-01-08T05:21:43.622Z,3.48
2023-01-08T05:24:45.900Z,3.45
2023-01-08T05:27:48.751Z,3.59
2023-01-08T05:30:51.214Z,3.61
2023-01-08T05:33:53.463Z,3.52
2023-01-08T05:36:55.745Z,3.72
2023-01-08T05:39:57.998Z,3.48
2023-01-08T05:43:01.269Z,3.56
2023-01-08T05:46:04.919Z,3.47
2023-01-08T05:49:07.263Z,3.47
2023-01-08T05:52:09.739Z,3.38
2023-01-08T05:55:12.627Z,3.65
2023-01-08T05:58:19.084Z,3.53
2023-01-08T06:01:21.578Z,3.62
2023-01-08T06:04:24.486Z,3.69
2023-01-08T06:07:27.007Z,3.47
2023-01-08T06:10:29.467Z,3.55
2023-01-08T06:13:32.263Z,3.36
2023-01-08T06:16:34.532Z,3.60
2023-01-08T06:19:36.861Z,3.49
2023-01-08T06:22:39.206Z,3.49
2023-01-08T06:25:41.521Z,3.28
2023-01-08T06:28:43.982Z,3.29
2023-01-08T06:31:46.340Z,3.12
2023-01-08T06:34:48.815Z,3.08
2023-01-08T06:37:51.312Z,3.31
2023-01-08T06:40:53.684Z,3.09
2023-01-08T06:43:56.181Z,2.89
2023-01-08T06:46:58.602Z,3.09
2023-01-08T06:50:00.941Z,3.28
2023-01-08T06:53:03.318Z,3.17
2023-01-08T06:56:07.595Z,3.06
2023-01-08T06:59:09.984Z,3.29
2023-01-08T07:02:16.617Z,3.40
2023-01-08T07:05:19.224Z,3.36
2023-01-08T07:08:21.697Z,3.34
2023-01-08T07:11:24.049Z,3.56
2023-01-08T07:14:26.426Z,3.45
2023-01-08T07:17:28.798Z,3.34
2023-01-08T07:20:31.103Z,3.43
2023-01-08T07:23:34.250Z,3.34
2023-01-08T07:26:36.519Z,3.41
2023-01-08T07:29:38.839Z,3.28
2023-01-08T07:32:41.190Z,3.38
2023-01-08T07:35:43.502Z,3.49
2023-01-08T07:38:45.844Z,3.44
2023-01-08T07:41:48.130Z,3.48
2023-01-08T07:44:50.431Z,3.43
2023-01-08T07:47:52.715Z,3.48
2023-01-08T07:50:55.093Z,3.36
2023-01-08T07:53:57.425Z,3.46
2023-01-08T07:56:59.808Z,3.59
2023-01-08T08:00:02.217Z,3.65
2023-01-08T08:03:11.640Z,3.61
2023-01-08T08:06:14.145Z,3.65
2023-01-08T08:09:16.411Z,3.62
2023-01-08T08:12:18.714Z,3.74
2023-01-08T08:15:21.186Z,3.72
2023-01-08T08:18:23.611Z,3.73
2023-01-08T08:21:26.116Z,3.76
2023-01-08T08:24:28.575Z,3.69
2023-01-08T08:27:30.881Z,3.73
2023-01-08T08:30:34.757Z,3.78
2023-01-08T08:33:37.104Z,3.82
2023-01-08T08:36:39.388Z,3.76
2023-01-08T08:39:41.710Z,3.91
2023-01-08T08:42:44.049Z,3.86
2023-01-08T08:45:46.332Z,3.89
2023-01-08T08:48:48.697Z,3.89
2023-01-08T08:51:51.045Z,3.96
2023-01-08T08:54:53.430Z,3.96
2023-01-08T08:57:55.752Z,3.99
2023-01-08T09:01:02.743Z,4.04
2023-01-08T09:04:05.139Z,4.13
2023-01-08T09:07:07.679Z,4.08
2023-01-08T09:10:10.190Z,4.21
2023-01-08T09:13:12.483Z,4.09
2023-01-08T09:16:15.073Z,3.96
2023-01-08T09:19:17.379Z,4.05
2023-01-08T09:22:19.986Z,3.97
2023-01-08T09:25:22.417Z,4.10
2023-01-08T09:28:25.024Z,4.31
2023-01-08T09:31:28.015Z,4.42
2023-01-08T09:34:31.695Z,4.29
2023-01-08T09:37:34.173Z,4.36
2023-01-08T09:41:05.786Z,4.39
2023-01-08T09:44:08.402Z,4.33
2023-01-08T09:47:28.844Z,4.29
2023-01-08T09:50:31.955Z,3.94
2023-01-08T09:53:34.403Z,4.28
2023-01-08T09:56:37.329Z,4.48
2023-01-08T09:59:39.810Z,4.26
2023-01-08T10:02:42.600Z,4.38
2023-01-08T10:05:45.127Z,4.43
2023-01-08T10:08:47.405Z,4.53
2023-01-08T10:11:50.898Z,4.36
2023-01-08T10:14:54.760Z,4.43
2023-01-08T10:18:06.395Z,4.59
2023-01-08T10:21:14.075Z,4.47
2023-01-08T10:24:16.628Z,4.42
2023-01-08T10:27:20.111Z,4.48
2023-01-08T10:30:25.041Z,4.50
2023-01-08T10:33:32.128Z,4.54
2023-01-08T10:36:40.213Z,4.58
2023-01-08T10:39:47.988Z,4.55
2023-01-08T10:42:51.313Z,4.48
2023-01-08T10:46:04.032Z,4.55
2023-01-08T10:49:08.028Z,4.59
2023-01-08T10:52:25.718Z,4.55
2023-01-08T10:55:36.066Z,4.60
2023-01-08T10:58:42.646Z,4.59
2023-01-08T11:01:47.773Z,4.43
2023-01-08T11:04:51.549Z,4.53
2023-01-08T11:07:57.221Z,4.56
2023-01-08T11:11:01.332Z,4.54
2023-01-08T11:14:16.048Z,4.55
2023-01-08T11:17:18.320Z,4.51
2023-01-08T11:20:39.115Z,4.59
2023-01-08T11:23:41.386Z,4.59
2023-01-08T11:26:50.735Z,4.51
2023-01-08T11:30:01.643Z,4.56
2023-01-08T11:33:10.568Z,4.58
2023-01-08T11:36:28.971Z,4.73
2023-01-08T11:39:32.393Z,4.49
2023-01-08T11:42:49.581Z,4.62
2023-01-08T11:46:28.821Z,4.70
2023-01-08T11:49:44.220Z,4.59
2023-01-08T11:52:55.452Z,4.66
2023-01-08T11:56:31.970Z,4.73
2023-01-08T12:00:01.590Z,4.66
2023-01-08T12:03:26.033Z,4.73
2023-01-08T12:06:50.428Z,4.72
2023-01-08T12:10:25.112Z,4.70
2023-01-08T12:14:04.218Z,4.74
2023-01-08T12:17:37.320Z,4.78
2023-01-08T12:21:10.764Z,4.86
2023-01-08T12:24:21.800Z,4.81
2023-01-08T12:27:58.597Z,4.87
2023-01-08T12:31:33.892Z,4.83
2023-01-08T12:34:57.747Z,4.95
2023-01-08T12:38:05.458Z,4.86
2023-01-08T12:41:10.828Z,4.73
2023-01-08T12:44:18.626Z,4.72
2023-01-08T12:47:25.713Z,4.83
2023-01-08T12:51:09.448Z,4.89
2023-01-08T12:54:20.866Z,4.90
2023-01-08T12:57:40.091Z,4.91
2023-01-08T13:00:46.575Z,4.80
2023-01-08T13:03:49.296Z,4.82
2023-01-08T13:07:04.480Z,4.60
2023-01-08T13:10:09.816Z,4.57
2023-01-08T13:13:33.018Z,4.72
2023-01-08T13:16:40.455Z,4.51
2023-01-08T13:19:44.274Z,4.69
2023-01-08T13:22:54.244Z,4.70
2023-01-08T13:25:58.915Z,4.82
2023-01-08T13:29:23.889Z,4.85
2023-01-08T13:32:44.122Z,4.84
2023-01-08T13:35:46.393Z,4.94
2023-01-08T13:39:00.732Z,4.88
2023-01-08T13:42:13.823Z,5.01
2023-01-08T13:45:16.212Z,4.95
2023-01-08T13:48:23.409Z,4.91
2023-01-08T13:51:39.316Z,4.70
2023-01-08T13:54:44.131Z,4.79
2023-01-08T13:57:50.165Z,4.83
2023-01-08T14:00:54.767Z,4.92
2023-01-08T14:03:57.247Z,4.59
2023-01-08T14:07:14.410Z,4.82
2023-01-08T14:10:20.576Z,4.88
2023-01-08T14:13:29.140Z,4.67
2023-01-08T14:16:33.540Z,4.64
2023-01-08T14:19:36.065Z,4.71
2023-01-08T14:22:38.623Z,4.66
2023-01-08T14:25:42.145Z,4.61
2023-01-08T14:28:54.937Z,4.64
2023-01-08T14:31:59.153Z,4.69
2023-01-08T14:35:02.150Z,4.61
2023-01-08T14:38:05.822Z,4.56
2023-01-08T14:41:11.626Z,4.55
2023-01-08T14:44:17.383Z,4.61
2023-01-08T14:47:21.574Z,4.50
2023-01-08T14:50:33.026Z,4.51
2023-01-08T14:53:48.667Z,4.52
2023-01-08T14:56:54.814Z,4.42
2023-01-08T15:00:01.313Z,4.45
2023-01-08T15:03:03.729Z,4.53
2023-01-08T15:06:07.535Z,4.49
2023-01-08T15:09:36.451Z,4.35
2023-01-08T15:12:38.809Z,4.46
2023-01-08T15:15:58.063Z,4.44
2023-01-08T15:19:20.359Z,4.19
2023-01-08T15:22:27.783Z,4.41
2023-01-08T15:25:30.863Z,4.41
2023-01-08T15:28:33.376Z,4.33
2023-01-08T15:31:41.793Z,4.47
2023-01-08T15:34:45.309Z,4.44
2023-01-08T15:37:47.711Z,4.20
2023-01-08T15:40:50.672Z,4.41
2023-01-08T15:43:52.982Z,4.32
2023-01-08T15:46:55.355Z,4.36
2023-01-08T15:49:57.659Z,4.49
2023-01-08T15:53:01.207Z,4.42
2023-01-08T15:56:03.638Z,4.45
2023-01-08T15:59:06.012Z,4.47
2023-01-08T16:02:12.256Z,4.55
2023-01-08T16:05:17.581Z,4.59
2023-01-08T16:08:20.119Z,4.54
2023-01-08T16:11:22.464Z,4.48
2023-01-08T16:14:24.775Z,4.62
2023-01-08T16:17:30.133Z,4.67
2023-01-08T16:20:32.425Z,4.70
2023-01-08T16:23:35.867Z,4.87
2023-01-08T16:26:38.146Z,4.86
2023-01-08T16:29:40.370Z,4.83
2023-01-08T16:32:43.119Z,4.75
2023-01-08T16:35:45.342Z,4.79
2023-01-08T16:38:49.204Z,4.82
2023-01-08T16:41:51.596Z,4.80
2023-01-08T16:44:53.951Z,4.84
2023-01-08T16:47:56.300Z,4.92
2023-01-08T16:51:05.491Z,5.04
2023-01-08T16:54:08.227Z,5.10
2023-01-08T16:57:10.588Z,5.06
2023-01-08T17:00:13.281Z,5.01
2023-01-08T17:03:15.593Z,4.94
2023-01-08T17:06:17.933Z,5.04
2023-01-08T17:09:20.311Z,5.04
2023-01-08T17:12:22.676Z,5.05
2023-01-08T17:15:25.796Z,5.13
2023-01-08T17:18:28.443Z,5.03
2023-01-08T17:21:30.868Z,5.00
2023-01-08T17:24:33.371Z,5.14
2023-01-08T17:27:36.160Z,5.15
2023-01-08T17:30:38.483Z,5.17
2023-01-08T17:33:41.380Z,5.15
2023-01-08T17:36:43.904Z,5.06
2023-01-08T17:39:46.265Z,5.10
2023-01-08T17:42:48.564Z,5.19
2023-01-08T17:45:50.977Z,5.06
2023-01-08T17:48:53.432Z,5.22
2023-01-08T17:51:57.158Z,5.19
2023-01-08T17:54:59.396Z,4.98
2023-01-08T17:58:01.664Z,5.15
2023-01-08T18:01:04.414Z,5.14
2023-01-08T18:04:06.799Z,4.82
2023-01-08T18:07:09.460Z,5.05
2023-01-08T18:10:13.120Z,5.11
2023-01-08T18:13:15.576Z,5.32
2023-01-08T18:16:18.039Z,5.13
2023-01-08T18:19:21.108Z,5.09
2023-01-08T18:22:23.579Z,5.26
2023-01-08T18:25:25.867Z,5.01
2023-01-08T18:28:28.175Z,5.06
2023-01-08T18:31:30.478Z,5.16
2023-01-08T18:34:32.881Z,5.12
2023-01-08T18:37:35.233Z,5.29
2023-01-08T18:40:37.591Z,5.19
2023-01-08T18:43:39.915Z,5.20
2023-01-08T18:46:42.367Z,5.12
2023-01-08T18:49:44.629Z,5.10
2023-01-08T18:52:47.037Z,4.87
2023-01-08T18:55:50.565Z,4.84
2023-01-08T18:58:52.895Z,4.79
2023-01-08T19:01:55.305Z,4.90
2023-01-08T19:04:57.682Z,4.72
2023-01-08T19:08:00.117Z,4.76
2023-01-08T19:11:05.914Z,4.86
2023-01-08T19:14:12.580Z,4.81
2023-01-08T19:17:14.947Z,4.86
2023-01-08T19:20:17.575Z,4.73
2023-01-08T19:23:20.240Z,4.65
2023-01-08T19:26:22.821Z,4.74
2023-01-08T19:29:25.164Z,4.65
2023-01-08T19:32:27.504Z,4.53
2023-01-08T19:35:29.937Z,4.47
2023-01-08T19:38:32.850Z,4.49
2023-01-08T19:41:54.741Z,4.61
2023-01-08T19:44:58.691Z,4.43
2023-01-08T19:48:03.291Z,4.42
2023-01-08T19:51:09.305Z,4.41
2023-01-08T19:54:12.822Z,4.34
2023-01-08T19:57:15.153Z,4.30
2023-01-08T20:00:18.253Z,4.38
2023-01-08T20:03:29.329Z,4.25
2023-01-08T20:06:31.619Z,4.34
2023-01-08T20:09:35.066Z,4.20
2023-01-08T20:12:38.440Z,4.26
2023-01-08T20:15:40.789Z,4.27
2023-01-08T20:18:43.741Z,4.29
2023-01-08T20:21:47.738Z,4.09
2023-01-08T20:24:51.656Z,4.17
2023-01-08T20:27:55.411Z,4.14
2023-01-08T20:30:58.026Z,4.19
2023-01-08T20:34:02.153Z,4.18
2023-01-08T20:37:06.207Z,4.21
2023-01-08T20:40:09.334Z,4.27
2023-01-08T20:43:11.794Z,3.99
2023-01-08T20:46:14.882Z,4.02
2023-01-08T20:49:19.096Z,4.06
2023-01-08T20:52:21.465Z,4.12
2023-01-08T20:55:23.883Z,4.32
2023-01-08T20:58:26.382Z,3.95
2023-01-08T21:01:34.246Z,4.08
2023-01-08T21:04:41.473Z,4.02
2023-01-08T21:07:43.849Z,3.95
2023-01-08T21:10:46.431Z,4.11
2023-01-08T21:13:49.275Z,3.85
2023-01-08T21:16:51.628Z,4.00
2023-01-08T21:19:54.235Z,4.04
2023-01-08T21:22:57.840Z,4.04
2023-01-08T21:26:05.793Z,4.06
2023-01-08T21:29:09.118Z,3.99
2023-01-08T21:32:11.593Z,3.97
2023-01-08T21:35:14.137Z,4.08
2023-01-08T21:38:16.500Z,4.15
2023-01-08T21:41:39.998Z,4.09
2023-01-08T21:45:01.502Z,4.27
2023-01-08T21:48:04.030Z,4.11
2023-01-08T21:51:26.334Z,4.11
2023-01-08T21:54:28.690Z,4.05
2023-01-08T21:57:31.085Z,4.06
2023-01-08T22:00:33.445Z,4.10
2023-01-08T22:03:35.727Z,4.17
2023-01-08T22:06:38.404Z,4.00
2023-01-08T22:09:40.753Z,4.06
2023-01-08T22:12:43.082Z,3.91
2023-01-08T22:15:45.490Z,4.08
2023-01-08T22:18:47.830Z,4.02
2023-01-08T22:21:50.177Z,4.22
2023-01-08T22:24:52.647Z,4.16
2023-01-08T22:27:56.325Z,4.16
2023-01-08T22:30:58.726Z,3.85
2023-01-08T22:34:01.342Z,4.07
2023-01-08T22:37:03.781Z,3.91
2023-01-08T22:40:06.737Z,3.95
2023-01-08T22:43:09.128Z,3.98
2023-01-08T22:46:16.282Z,3.99
2023-01-08T22:49:18.599Z,3.96
2023-01-08T22:52:20.978Z,3.96
2023-01-08T22:55:23.367Z,3.95
2023-01-08T22:58:25.773Z,3.67
2023-01-08T23:01:28.206Z,3.56
2023-01-08T23:04:30.598Z,3.77
2023-01-08T23:07:33.703Z,3.92
2023-01-08T23:10:36.120Z,3.92
2023-01-08T23:13:39.345Z,3.90
2023-01-08T23:16:41.847Z,3.76
2023-01-08T23:19:44.397Z,3.61
2023-01-08T23:22:47.819Z,3.65
2023-01-08T23:25:50.085Z,3.77
2023-01-08T23:28:54.122Z,3.52
2023-01-08T23:32:00.466Z,3.59
2023-01-08T23:35:02.767Z,3.39
2023-01-08T23:38:05.206Z,3.58
2023-01-08T23:41:07.688Z,3.75
2023-01-08T23:44:15.905Z,3.89
2023-01-08T23:47:18.174Z,3.79
2023-01-08T23:50:20.542Z,3.69
2023-01-08T23:53:23.314Z,3.73
2023-01-08T23:56:25.706Z,3.88
2023-01-08T23:59:28.023Z,3.83
